Air Quality Table

TIMESTAMP NO2 SO2 O3 PM10 PM2.5 CO TEMP HUM AIRPRES WS WD NO BENZENE
2022-11-30 10:00 42.43 µg/m3 0.55 µg/m3 27.46 µg/m3 13.23 µg/m3 5.39 µg/m3 0.39 mg/m3 12.82 °C 87.88 % 1,007.41 mbar 1.54 m/s 293.73 Deg 43.82 µg/m3 1.33 µg/m3
2022-11-30 09:00 55.11 µg/m3 0.56 µg/m3 14 µg/m3 7.76 µg/m3 3.95 µg/m3 0.42 mg/m3 12.04 °C 92.15 % 1,006.96 mbar 1.45 m/s 232.13 Deg 58.21 µg/m3 3.25 µg/m3
2022-11-30 08:00 54.51 µg/m3 0.99 µg/m3 9.61 µg/m3 7.21 µg/m3 3.75 µg/m3 0.42 mg/m3 11.67 °C 93.67 % 1,006.89 mbar 1.18 m/s 206.21 Deg 71.88 µg/m3 2.57 µg/m3
2022-11-30 07:00 60.85 µg/m3 0.83 µg/m3 10.26 µg/m3 9.11 µg/m3 4.84 µg/m3 0.41 mg/m3 12.01 °C 94.91 % 1,006.58 mbar 0.88 m/s 253.04 Deg 73.12 µg/m3 2.99 µg/m3
2022-11-30 06:00 25.27 µg/m3 -0.32 µg/m3 44.19 µg/m3 6.64 µg/m3 3.61 µg/m3 0.27 mg/m3 12.32 °C 95.49 % 1,006.49 mbar 1.98 m/s 256.91 Deg 18.55 µg/m3 0.52 µg/m3
2022-11-30 05:00 10.5 µg/m3 -0.03 µg/m3 45.9 µg/m3 7.88 µg/m3 4.13 µg/m3 0.24 mg/m3 12.22 °C 93.27 % 1,006.19 mbar 2.2 m/s 245.93 Deg 2.93 µg/m3 0.7 µg/m3
2022-11-30 04:00 14.64 µg/m3 -0.13 µg/m3 34.85 µg/m3 6.92 µg/m3 3.72 µg/m3 0.26 mg/m3 12.4 °C 89.22 % 1,005.93 mbar 1.01 m/s 218.88 Deg 4.28 µg/m3 0.84 µg/m3
2022-11-30 03:00 25.55 µg/m3 -0.33 µg/m3 41.34 µg/m3 6.51 µg/m3 3.8 µg/m3 0.18 mg/m3 12.53 °C 90.74 % 1,006.06 mbar 1 m/s 236.67 Deg 1.82 µg/m3 0.65 µg/m3
2022-11-30 02:00 11.05 µg/m3 -0.13 µg/m3 43.05 µg/m3 7.2 µg/m3 3.66 µg/m3 0.27 mg/m3 13.01 °C 90.17 % 1,006.04 mbar 0.62 m/s 308.62 Deg 3.69 µg/m3 0.63 µg/m3
2022-11-30 01:00 8.49 µg/m3 -0.38 µg/m3 47.61 µg/m3 7.25 µg/m3 3.09 µg/m3 0.28 mg/m3 12.22 °C 95.08 % 1,006.41 mbar 1.33 m/s 227.55 Deg 1.99 µg/m3 0.58 µg/m3
2022-11-30 00:00 8.24 µg/m3 -0.32 µg/m3 57.87 µg/m3 5.75 µg/m3 2.82 µg/m3 0.29 mg/m3 11.99 °C 95.01 % 1,006.73 mbar 1.78 m/s 219.21 Deg 0.86 µg/m3 0.97 µg/m3
2022-11-29 23:00 7.31 µg/m3 -0.22 µg/m3 58.47 µg/m3 9.16 µg/m3 4.26 µg/m3 0.31 mg/m3 12.01 °C 93.56 % 1,006.71 mbar 2.12 m/s 236.02 Deg 0.83 µg/m3 0.86 µg/m3
2022-11-29 22:00 7.2 µg/m3 -0.22 µg/m3 62.35 µg/m3 11.36 µg/m3 4.49 µg/m3 0.32 mg/m3 13.28 °C 87.7 % 1,006.59 mbar 2.24 m/s 282.23 Deg 1.66 µg/m3 1 µg/m3
2022-11-29 21:00 25.83 µg/m3 0.26 µg/m3 33.29 µg/m3 9.45 µg/m3 4.84 µg/m3 0.36 mg/m3 13.21 °C 93.41 % 1,006.20 mbar 1.06 m/s 230.04 Deg 4.55 µg/m3 1.44 µg/m3
2022-11-29 20:00 27.86 µg/m3 0.1 µg/m3 36.66 µg/m3 10.92 µg/m3 4.9 µg/m3 0.35 mg/m3 13.4 °C 93.21 % 1,005.84 mbar 0.91 m/s 196.71 Deg 6.17 µg/m3 1.42 µg/m3
2022-11-29 19:00 31.41 µg/m3 0.15 µg/m3 40.73 µg/m3 12.15 µg/m3 5.63 µg/m3 0.34 mg/m3 13.33 °C 92.15 % 1,005.68 mbar 0.89 m/s 193.26 Deg 7.49 µg/m3 1.12 µg/m3
2022-11-29 18:00 25.38 µg/m3 -0.05 µg/m3 48.1 µg/m3 21.25 µg/m3 8.09 µg/m3 0.33 mg/m3 14.03 °C 89.88 % 1,005.62 mbar 1.87 m/s 185.53 Deg 7.84 µg/m3 0.84 µg/m3
2022-11-29 17:00 44.53 µg/m3 0.19 µg/m3 30.22 µg/m3 14.94 µg/m3 5.78 µg/m3 0.35 mg/m3 14.5 °C 88.15 % 1,005.40 mbar 0.82 m/s 220.63 Deg 18.88 µg/m3 1.68 µg/m3
2022-11-29 16:00 44.5 µg/m3 -0.14 µg/m3 29.17 µg/m3 17.12 µg/m3 7.12 µg/m3 0.35 mg/m3 14.61 °C 92.67 % 1,005.27 mbar 0.98 m/s 267.3 Deg 16.92 µg/m3 1.36 µg/m3
2022-11-29 15:00 32.59 µg/m3 -0.25 µg/m3 38.01 µg/m3 14.92 µg/m3 6.48 µg/m3 0.31 mg/m3 14.27 °C 92.91 % 1,005.25 mbar 1.28 m/s 203.65 Deg 12.58 µg/m3 1.02 µg/m3
2022-11-29 14:00 23.68 µg/m3 -0.13 µg/m3 47.82 µg/m3 16.13 µg/m3 5.79 µg/m3 0.3 mg/m3 15.25 °C 83.81 % 1,005.69 mbar 1.21 m/s 160.34 Deg 7.65 µg/m3 0.94 µg/m3
2022-11-29 13:00 18.17 µg/m3 -0.2 µg/m3 51.58 µg/m3 15.07 µg/m3 5.6 µg/m3 0.3 mg/m3 15.76 °C 79.56 % 1,005.84 mbar 1.42 m/s 169.88 Deg 7.14 µg/m3 0.87 µg/m3

It is to be noted that the data is provisional and subject to quality assurance procedures. For validated data kindly refer your request to contact.air@era.org.mt